首页
METAR-TAF:

METAR-TAF

机场 :

扎達爾, 克罗地亚

纬度: 44-06N, 经度: 015-21E, 海拔: 82米

当前天气观测

该预报发布于20分钟前的04:30 UTC
风速11节,风向南转南东
温度 11°C
湿度 82%
气压 998 hPa
能见度10公里或以上
多云层高于5500英尺
小雨

METAR: LDZD 230430Z 15011KT 9999 -RA BKN055 11/08 Q0998

时间: 05:50 (04:50 UTC)

预报

该预报发布于5小时和25分钟前的23:25 UTC
预报有效从23日的 00点(UTC)到 24日的 00点(UTC)
风速15节,风向南转南东
能见度10公里或以上
多云层高于4500英尺
几率 40% :
短暂存在
从 23日的 00点(UTC)到 23日的 04点(UTC)
风速25节,风向南转南东,有时为35节阵风
几率 30% :
短暂存在
从 23日的 00点(UTC)到 23日的 08点(UTC)
少量云层高于3500英尺, 积雨云.
多云层高于4500英尺
雷暴, 雨
成为
从 23日的 08点(UTC)到 23日的 10点(UTC)
风速12节,风向南转西南
几率 30% :
短暂存在
从 23日的 19点(UTC)到 23日的 23点(UTC)
少量云层高于2500英尺, 塔状积云.
多云层高于3500英尺
阵雨

TAF: LDZD 222325Z 2300/2400 15015KT 9999 BKN045 TX15/2312Z TN10/2323Z PROB40 TEMPO 2300/2304 16025G35KT PROB30 TEMPO 2300/2308 TSRA FEW035CB BKN045 BECMG 2308/2310 20012KT PROB30 TEMPO 2319/2323 SHRA FEW025TCU BKN035

超过4000个机场的气象观测和天气预报(METAR&TAF报告)。

可查询的气象台以黄色和红色小点在地图上表示。

将鼠标移到小点上方,可查看气象台名称。

然后点击查看天气观测和预报。

如需切换地图:点击带黑十字的绿色按钮放大地图;点击带横线的绿色按钮缩小地图;或者点击绿色箭头查看邻近地区的地图。


METAR-TAF: